Air Supply — WDE6069 — position and weather

sailwx.info

Track history (hours):
 
Tides and Currents Weather Stations Pressure Air Temp Water Temp Dewpoint Dewpoint Depression Visibility Wind Speed Wind Dir Waves Ship Positions

Air Supply

Owner: Knowles, Clay A, Fruita, CO. More information available from US FCC via Universal Licensing System and Coast Guard Vessel Documentation Center.

Last reported at 2017-Sep-21 23:26 UTC. Time now 2017-Sep-22 08:06 UTC.
Position N 29°51' W 092°21'.

Length 36 m; draft 3 m.

Type: Towing. MMSI: 367375720.

Date/timePositionNaut miles runAvg speedWind from/ knotsBaromVisibWave heightAir tempDewpointWater temp
2017-Sep-21 23:26N 29°51' W 092°21'3 5.3
2017-Sep-21 22:55N 29°50' W 092°18'2 4.9
2017-Sep-21 22:30N 29°49' W 092°17'3 5.5
2017-Sep-21 22:00N 29°48' W 092°14'3 5.4
2017-Sep-21 21:30N 29°47' W 092°11'2 3.2
2017-Sep-21 21:00N 29°47' W 092°09'0 0.1
2017-Sep-21 20:30N 29°47' W 092°09'0 0.1
2017-Sep-21 20:00N 29°47' W 092°09'2 4.5
2017-Sep-21 19:27N 29°48' W 092°06'3 6.0
2017-Sep-21 19:00N 29°49' W 092°03'  
2017-Sep-18 21:17N 29°50' W 091°60'1 4.1
2017-Sep-18 21:00N 29°49' W 092°01'2 4.9
2017-Sep-18 20:30N 29°49' W 092°03'2 4.8
2017-Sep-18 20:00N 29°48' W 092°06'2 5.0
2017-Sep-18 19:30N 29°47' W 092°09'2 3.5
2017-Sep-18 19:00N 29°47' W 092°11'1 1.1
2017-Sep-18 18:30N 29°47' W 092°11'2 4.6
2017-Sep-18 18:00N 29°48' W 092°14'1 3.0
2017-Sep-18 17:30N 29°48' W 092°15'2 5.0
2017-Sep-18 17:00N 29°50' W 092°18'32 3.3
2017-Sep-18 07:28N 29°57' W 092°53'2 4.7
2017-Sep-18 07:00N 29°56' W 092°56'3 4.2
2017-Sep-18 06:15N 29°56' W 092°59'1 3.2
2017-Sep-18 05:47N 29°56' W 093°01'1 4.3
2017-Sep-18 05:27N 29°56' W 093°03'2 4.4
2017-Sep-18 05:00N 29°56' W 093°05'2 4.4
2017-Sep-18 04:30N 29°56' W 093°07'2 4.2
2017-Sep-18 04:00N 29°56' W 093°10'2 4.4
2017-Sep-18 03:30N 29°58' W 093°11'2 4.4
2017-Sep-18 03:00N 29°60' W 093°13'2 3.8
2017-Sep-18 02:30N 30°02' W 093°14'2 4.0
2017-Sep-18 02:00N 30°03' W 093°16'2 3.1
2017-Sep-18 01:30N 30°04' W 093°16'2 3.9
2017-Sep-18 01:00N 30°06' W 093°18'0 1.0
2017-Sep-18 00:30N 30°06' W 093°18'0 0.0
2017-Sep-18 00:00N 30°06' W 093°18'0 0.3
2017-Sep-17 23:30N 30°06' W 093°18'2 4.2
2017-Sep-17 23:00N 30°05' W 093°20'2 3.5
2017-Sep-17 22:30N 30°04' W 093°22'1 2.5
2017-Sep-17 22:00N 30°04' W 093°23'2 3.6
2017-Sep-17 21:30N 30°04' W 093°25'2 4.4
2017-Sep-17 21:00N 30°04' W 093°28'2 3.8
2017-Sep-17 20:30N 30°04' W 093°30'2 4.7
2017-Sep-17 20:00N 30°04' W 093°33'3 5.0
2017-Sep-17 19:30N 30°04' W 093°36'2 4.9
2017-Sep-17 19:00N 30°04' W 093°39'3 5.0
2017-Sep-17 18:29N 30°03' W 093°42'16 2.0
2017-Sep-17 10:34N 30°01' W 093°59'0 0.0
2017-Sep-17 10:10N 30°01' W 093°59'0 0.0
2017-Sep-17 09:56N 30°01' W 093°59'0 0.0
2017-Sep-17 06:22N 30°01' W 093°59'0 0.0
2017-Sep-17 06:00N 30°01' W 093°59'0 0.0
2017-Sep-17 05:30N 30°01' W 093°59'0 0.0
2017-Sep-17 04:55N 30°01' W 093°59'0 0.0
2017-Sep-17 04:29N 30°01' W 093°59'0 0.0
2017-Sep-17 03:58N 30°01' W 093°59'0 0.0
2017-Sep-17 03:29N 30°01' W 093°59'0 0.0
2017-Sep-17 03:00N 30°01' W 093°59'0 0.0
2017-Sep-17 02:30N 30°01' W 093°59'0 0.0
2017-Sep-17 02:00N 30°01' W 093°59'0 0.0
2017-Sep-16 12:51N 30°01' W 093°59'0 0.0
2017-Sep-16 12:25N 30°01' W 093°59'0 0.0
2017-Sep-16 11:43N 30°01' W 093°59'0 0.0
2017-Sep-16 11:26N 30°01' W 093°59'0 0.0
2017-Sep-16 10:50N 30°01' W 093°59'0 0.0
2017-Sep-16 10:29N 30°01' W 093°59'0 0.0
2017-Sep-16 09:51N 30°01' W 093°59'0 0.0
2017-Sep-16 09:24N 30°01' W 093°59'0 0.0
2017-Sep-16 08:59N 30°01' W 093°59'0 0.0
2017-Sep-16 08:29N 30°01' W 093°59'0 0.0
2017-Sep-16 07:54N 30°01' W 093°59'0 0.0
2017-Sep-16 07:25N 30°01' W 093°59'0 0.0
2017-Sep-16 07:00N 30°01' W 093°59'0 0.0
2017-Sep-16 06:28N 30°01' W 093°59'0 0.0
2017-Sep-16 05:59N 30°01' W 093°59'0 0.0
2017-Sep-16 05:28N 30°01' W 093°59'0 0.0
2017-Sep-16 05:00N 30°01' W 093°59'0 0.0
2017-Sep-16 04:30N 30°01' W 093°59'0 0.0
2017-Sep-16 03:58N 30°01' W 093°59'0 0.0
2017-Sep-16 03:30N 30°01' W 093°59'0 0.0
2017-Sep-16 02:50N 30°01' W 093°59'0 0.0
2017-Sep-16 02:30N 30°01' W 093°59'0 0.0
2017-Sep-16 02:00N 30°01' W 093°59'13 1.2
2017-Sep-15 14:40N 30°02' W 093°44'3 5.6
2017-Sep-15 14:09N 30°04' W 093°41'1 5.7
2017-Sep-15 14:00N 30°04' W 093°40'3 5.6
2017-Sep-15 13:29N 30°04' W 093°37'3 5.6
2017-Sep-15 13:00N 30°04' W 093°34'3 5.6
2017-Sep-15 12:30N 30°04' W 093°30'3 5.8
2017-Sep-15 12:00N 30°04' W 093°27'3 5.8
2017-Sep-15 11:30N 30°04' W 093°24'3 5.1
2017-Sep-15 11:00N 30°04' W 093°21'2 5.0
2017-Sep-15 10:30N 30°06' W 093°19'2 3.1
2017-Sep-15 10:00N 30°05' W 093°17'1 2.7
2017-Sep-15 09:30N 30°04' W 093°16'2 4.2
2017-Sep-15 09:00N 30°02' W 093°15'3 5.2
2017-Sep-15 08:30N 30°00' W 093°14'3 5.8
2017-Sep-15 08:00N 29°58' W 093°11'3 5.7
2017-Sep-15 07:29N 29°56' W 093°09'3 6.0
2017-Sep-15 07:00N 29°56' W 093°05'20 5.5
2017-Sep-15 03:20N 29°57' W 092°42'20 4.0
2017-Sep-14 22:18N 29°51' W 092°20'1 2.2
2017-Sep-14 21:58N 29°50' W 092°19'2 3.9
2017-Sep-14 21:30N 29°50' W 092°18'2 3.6
2017-Sep-14 21:00N 29°49' W 092°16'1 1.6
2017-Sep-14 20:30N 29°48' W 092°15'2 4.4
2017-Sep-14 20:00N 29°47' W 092°13'2 3.7
2017-Sep-14 19:30N 29°47' W 092°11'3 5.2
2017-Sep-14 19:00N 29°47' W 092°08'3 5.6
2017-Sep-14 18:30N 29°48' W 092°05'  
Track history (hours):
 
Tides and Currents Weather Stations Pressure Air Temp Water Temp Dewpoint Dewpoint Depression Visibility Wind Speed Wind Dir Waves Ship Positions

Air Supply

Owner: Knowles, Clay A, Fruita, CO. More information available from US FCC via Universal Licensing System and Coast Guard Vessel Documentation Center.

Last reported at 2017-Sep-21 23:26 UTC. Time now 2017-Sep-22 08:06 UTC.
Position N 29°51' W 092°21'.

Length 36 m; draft 3 m.

Type: Towing. MMSI: 367375720.

Date/timePositionNaut miles runAvg speedWind from/ knotsBaromVisibWave heightAir tempDewpointWater temp
2017-Sep-21 23:26N 29°51' W 092°21'3 5.3
2017-Sep-21 22:55N 29°50' W 092°18'2 4.9
2017-Sep-21 22:30N 29°49' W 092°17'3 5.5
2017-Sep-21 22:00N 29°48' W 092°14'3 5.4
2017-Sep-21 21:30N 29°47' W 092°11'2 3.2
2017-Sep-21 21:00N 29°47' W 092°09'0 0.1
2017-Sep-21 20:30N 29°47' W 092°09'0 0.1
2017-Sep-21 20:00N 29°47' W 092°09'2 4.5
2017-Sep-21 19:27N 29°48' W 092°06'3 6.0
2017-Sep-21 19:00N 29°49' W 092°03'  
2017-Sep-18 21:17N 29°50' W 091°60'1 4.1
2017-Sep-18 21:00N 29°49' W 092°01'2 4.9
2017-Sep-18 20:30N 29°49' W 092°03'2 4.8
2017-Sep-18 20:00N 29°48' W 092°06'2 5.0
2017-Sep-18 19:30N 29°47' W 092°09'2 3.5
2017-Sep-18 19:00N 29°47' W 092°11'1 1.1
2017-Sep-18 18:30N 29°47' W 092°11'2 4.6
2017-Sep-18 18:00N 29°48' W 092°14'1 3.0
2017-Sep-18 17:30N 29°48' W 092°15'2 5.0
2017-Sep-18 17:00N 29°50' W 092°18'32 3.3
2017-Sep-18 07:28N 29°57' W 092°53'2 4.7
2017-Sep-18 07:00N 29°56' W 092°56'3 4.2
2017-Sep-18 06:15N 29°56' W 092°59'1 3.2
2017-Sep-18 05:47N 29°56' W 093°01'1 4.3
2017-Sep-18 05:27N 29°56' W 093°03'2 4.4
2017-Sep-18 05:00N 29°56' W 093°05'2 4.4
2017-Sep-18 04:30N 29°56' W 093°07'2 4.2
2017-Sep-18 04:00N 29°56' W 093°10'2 4.4
2017-Sep-18 03:30N 29°58' W 093°11'2 4.4
2017-Sep-18 03:00N 29°60' W 093°13'2 3.8
2017-Sep-18 02:30N 30°02' W 093°14'2 4.0
2017-Sep-18 02:00N 30°03' W 093°16'2 3.1
2017-Sep-18 01:30N 30°04' W 093°16'2 3.9
2017-Sep-18 01:00N 30°06' W 093°18'0 1.0
2017-Sep-18 00:30N 30°06' W 093°18'0 0.0
2017-Sep-18 00:00N 30°06' W 093°18'0 0.3
2017-Sep-17 23:30N 30°06' W 093°18'2 4.2
2017-Sep-17 23:00N 30°05' W 093°20'2 3.5
2017-Sep-17 22:30N 30°04' W 093°22'1 2.5
2017-Sep-17 22:00N 30°04' W 093°23'2 3.6
2017-Sep-17 21:30N 30°04' W 093°25'2 4.4
2017-Sep-17 21:00N 30°04' W 093°28'2 3.8
2017-Sep-17 20:30N 30°04' W 093°30'2 4.7
2017-Sep-17 20:00N 30°04' W 093°33'3 5.0
2017-Sep-17 19:30N 30°04' W 093°36'2 4.9
2017-Sep-17 19:00N 30°04' W 093°39'3 5.0
2017-Sep-17 18:29N 30°03' W 093°42'16 2.0
2017-Sep-17 10:34N 30°01' W 093°59'0 0.0
2017-Sep-17 10:10N 30°01' W 093°59'0 0.0
2017-Sep-17 09:56N 30°01' W 093°59'0 0.0
2017-Sep-17 06:22N 30°01' W 093°59'0 0.0
2017-Sep-17 06:00N 30°01' W 093°59'0 0.0
2017-Sep-17 05:30N 30°01' W 093°59'0 0.0
2017-Sep-17 04:55N 30°01' W 093°59'0 0.0
2017-Sep-17 04:29N 30°01' W 093°59'0 0.0
2017-Sep-17 03:58N 30°01' W 093°59'0 0.0
2017-Sep-17 03:29N 30°01' W 093°59'0 0.0
2017-Sep-17 03:00N 30°01' W 093°59'0 0.0
2017-Sep-17 02:30N 30°01' W 093°59'0 0.0
2017-Sep-17 02:00N 30°01' W 093°59'0 0.0
2017-Sep-16 12:51N 30°01' W 093°59'0 0.0
2017-Sep-16 12:25N 30°01' W 093°59'0 0.0
2017-Sep-16 11:43N 30°01' W 093°59'0 0.0
2017-Sep-16 11:26N 30°01' W 093°59'0 0.0
2017-Sep-16 10:50N 30°01' W 093°59'0 0.0
2017-Sep-16 10:29N 30°01' W 093°59'0 0.0
2017-Sep-16 09:51N 30°01' W 093°59'0 0.0
2017-Sep-16 09:24N 30°01' W 093°59'0 0.0
2017-Sep-16 08:59N 30°01' W 093°59'0 0.0
2017-Sep-16 08:29N 30°01' W 093°59'0 0.0
2017-Sep-16 07:54N 30°01' W 093°59'0 0.0
2017-Sep-16 07:25N 30°01' W 093°59'0 0.0
2017-Sep-16 07:00N 30°01' W 093°59'0 0.0
2017-Sep-16 06:28N 30°01' W 093°59'0 0.0
2017-Sep-16 05:59N 30°01' W 093°59'0 0.0
2017-Sep-16 05:28N 30°01' W 093°59'0 0.0
2017-Sep-16 05:00N 30°01' W 093°59'0 0.0
2017-Sep-16 04:30N 30°01' W 093°59'0 0.0
2017-Sep-16 03:58N 30°01' W 093°59'0 0.0
2017-Sep-16 03:30N 30°01' W 093°59'0 0.0
2017-Sep-16 02:50N 30°01' W 093°59'0 0.0
2017-Sep-16 02:30N 30°01' W 093°59'0 0.0
2017-Sep-16 02:00N 30°01' W 093°59'13 1.2
2017-Sep-15 14:40N 30°02' W 093°44'3 5.6
2017-Sep-15 14:09N 30°04' W 093°41'1 5.7
2017-Sep-15 14:00N 30°04' W 093°40'3 5.6
2017-Sep-15 13:29N 30°04' W 093°37'3 5.6
2017-Sep-15 13:00N 30°04' W 093°34'3 5.6
2017-Sep-15 12:30N 30°04' W 093°30'3 5.8
2017-Sep-15 12:00N 30°04' W 093°27'3 5.8
2017-Sep-15 11:30N 30°04' W 093°24'3 5.1
2017-Sep-15 11:00N 30°04' W 093°21'2 5.0
2017-Sep-15 10:30N 30°06' W 093°19'2 3.1
2017-Sep-15 10:00N 30°05' W 093°17'1 2.7
2017-Sep-15 09:30N 30°04' W 093°16'2 4.2
2017-Sep-15 09:00N 30°02' W 093°15'3 5.2
2017-Sep-15 08:30N 30°00' W 093°14'3 5.8
2017-Sep-15 08:00N 29°58' W 093°11'3 5.7
2017-Sep-15 07:29N 29°56' W 093°09'3 6.0
2017-Sep-15 07:00N 29°56' W 093°05'20 5.5
2017-Sep-15 03:20N 29°57' W 092°42'20 4.0
2017-Sep-14 22:18N 29°51' W 092°20'1 2.2
2017-Sep-14 21:58N 29°50' W 092°19'2 3.9
2017-Sep-14 21:30N 29°50' W 092°18'2 3.6
2017-Sep-14 21:00N 29°49' W 092°16'1 1.6
2017-Sep-14 20:30N 29°48' W 092°15'2 4.4
2017-Sep-14 20:00N 29°47' W 092°13'2 3.7
2017-Sep-14 19:30N 29°47' W 092°11'3 5.2
2017-Sep-14 19:00N 29°47' W 092°08'3 5.6
2017-Sep-14 18:30N 29°48' W 092°05'  

Dump ship's entire track history